Time;durP1;ratioP1;P1;durP2;ratioP2;P2;SDS_P1;SDS_P2;PMS_P1;PMS_P2;Temp;Humidity;BMP_temperature;BMP_pressure;BME280_temperature;BME280_humidity;BME280_pressure;Samples;Min_cycle;Max_cycle;Signal;HPM_P1;HPM_P2
2022/12/22 03:26:09;;;;;;;89.50;53.60;;;;;;;-3.99;96.22;97455.48;107677;1264;69869;-72
2022/12/22 03:28:38;;;;;;;82.30;51.10;;;;;;;-4.02;97.24;97456.55;107615;1266;68409;-72
2022/12/22 03:31:10;;;;;;;74.70;46.30;;;;;;;-4.05;97.74;97454.73;107623;1269;69128;-72
2022/12/22 03:33:40;;;;;;;66.30;45.50;;;;;;;-4.07;98.32;97445.72;107614;1269;58880;-73
2022/12/22 03:36:11;;;;;;;92.10;51.90;;;;;;;-4.11;98.88;97445.27;107763;1265;58971;-72
2022/12/22 03:38:41;;;;;;;83.70;50.00;;;;;;;-4.15;98.86;97443.96;107690;1269;70598;-72
2022/12/22 03:46:29;;;;;;;;;;;;;;;-4.17;99.44;97445.68;107643;1265;69555;-72
2022/12/22 03:46:50;;;;;;;75.60;42.90;;;;;;;-4.25;99.06;97438.48;107666;1269;58969;-72
2022/12/22 03:49:21;;;;;;;65.60;41.00;;;;;;;-4.29;98.63;97437.02;107655;1269;58903;-72
2022/12/22 03:51:52;;;;;;;67.90;41.40;;;;;;;-4.32;98.41;97436.88;107702;1269;70021;-73
2022/12/22 03:54:24;;;;;;;89.40;48.30;;;;;;;-4.34;98.23;97435.38;107645;1266;69165;-72
2022/12/22 03:56:54;;;;;;;82.90;48.60;;;;;;;-4.35;98.21;97434.36;107639;1266;68471;-72
2022/12/22 03:59:23;;;;;;;;;;;;;;;-4.36;97.73;97434.54;107672;1269;58904;-72
2022/12/22 04:01:53;;;;;;;69.60;44.00;;;;;;;-4.35;98.24;97430.11;107682;1269;58891;-71
2022/12/22 04:04:24;;;;;;;;;;;;;;;-4.36;97.98;97429.95;107687;1269;69809;-72
2022/12/22 04:06:55;;;;;;;58.10;35.50;;;;;;;-4.37;97.84;97427.25;107710;1269;69121;-72
2022/12/22 04:09:26;;;;;;;58.50;35.50;;;;;;;-4.39;97.73;97427.44;107654;1265;69140;-72
2022/12/22 04:14:43;;;;;;;80.20;48.20;;;;;;;-4.40;97.51;97426.27;107689;1265;58885;-71
2022/12/22 04:17:13;;;;;;;57.50;35.10;;;;;;;-4.40;97.48;97424.73;107697;1268;70449;-71
2022/12/22 04:19:43;;;;;;;67.10;40.60;;;;;;;-4.39;96.49;97423.86;107683;1269;69701;-72
2022/12/22 04:22:13;;;;;;;51.70;33.70;;;;;;;-4.39;96.69;97426.25;107644;1263;68548;-72
2022/12/22 04:24:42;;;;;;;51.70;31.80;;;;;;;-4.39;96.02;97424.71;107633;1265;58964;-72
2022/12/22 04:27:12;;;;;;;52.70;32.80;;;;;;;-4.37;94.22;97424.18;107727;1268;58971;-72
2022/12/22 04:29:43;;;;;;;67.60;39.60;;;;;;;-4.34;93.16;97419.71;107848;1269;70655;-73
2022/12/22 04:32:13;;;;;;;64.10;39.00;;;;;;;-4.29;92.89;97417.10;108511;1269;69287;-73
2022/12/22 04:34:43;;;;;;;64.00;38.40;;;;;;;-4.25;93.30;97417.72;108830;1265;69160;-73
2022/12/22 04:37:13;;;;;;;62.50;39.50;;;;;;;-4.22;93.59;97418.70;107757;1269;58930;-72
2022/12/22 04:39:45;;;;;;;57.40;35.60;;;;;;;-4.21;93.70;97421.25;107719;1269;58906;-73
2022/12/22 04:42:17;;;;;;;54.70;35.90;;;;;;;-4.22;93.83;97420.92;107711;1269;68904;-72
2022/12/22 04:44:46;;;;;;;85.40;49.10;;;;;;;-4.24;95.54;97419.77;107663;1270;69240;-73
2022/12/22 04:47:16;;;;;;;85.50;49.90;;;;;;;-4.27;95.95;97417.91;107714;1268;68513;-73
2022/12/22 04:49:46;;;;;;;68.00;44.40;;;;;;;-4.30;95.89;97419.48;107665;1259;58870;-73
2022/12/22 04:52:16;;;;;;;67.20;41.40;;;;;;;-4.32;96.01;97421.23;107683;1266;59396;-73
2022/12/22 04:54:45;;;;;;;;;;;;;;;-4.36;96.58;97417.35;107689;1265;70484;-73
2022/12/22 04:57:15;;;;;;;79.10;44.60;;;;;;;-4.38;98.33;97416.55;107683;1269;69398;-71
2022/12/22 04:59:44;;;;;;;77.40;46.50;;;;;;;-4.40;99.29;97417.08;107695;1269;69197;-71
2022/12/22 05:02:13;;;;;;;62.60;39.40;;;;;;;-4.43;99.27;97411.17;107656;1269;58978;-72
2022/12/22 05:04:47;;;;;;;63.20;40.90;;;;;;;-4.47;98.84;97409.52;107708;1266;58920;-72
2022/12/22 05:07:16;;;;;;;59.10;40.80;;;;;;;-4.48;99.47;97409.37;107706;1265;69801;-71
2022/12/22 05:09:45;;;;;;;69.80;44.10;;;;;;;-4.50;98.89;97407.00;107745;1268;69831;-72
2022/12/22 05:15:03;;;;;;;87.10;48.70;;;;;;;-4.48;94.25;97406.48;107777;1266;58919;-73
2022/12/22 05:17:32;;;;;;;79.10;46.90;;;;;;;-4.46;94.06;97412.73;107719;1266;58961;-72
2022/12/22 05:20:01;;;;;;;62.80;38.80;;;;;;;-4.46;94.26;97414.44;107697;1269;69903;-72
2022/12/22 05:22:31;;;;;;;69.80;44.60;;;;;;;-4.47;95.82;97417.52;107689;1269;69145;-72
2022/12/22 05:25:00;;;;;;;65.80;41.40;;;;;;;-4.47;96.54;97415.33;107702;1269;69263;-72
2022/12/22 05:27:28;;;;;;;60.40;40.20;;;;;;;-4.49;96.56;97412.44;107648;1269;58994;-72
2022/12/22 05:29:58;;;;;;;83.10;50.40;;;;;;;-4.50;97.18;97415.85;107723;1269;58940;-73
2022/12/22 05:32:27;;;;;;;86.00;51.30;;;;;;;-4.51;98.18;97417.74;107691;1269;70554;-73
2022/12/22 05:34:56;;;;;;;97.30;54.70;;;;;;;-4.52;98.50;97416.56;107703;1266;69829;-72
2022/12/22 05:37:25;;;;;;;68.60;45.40;;;;;;;-4.55;98.11;97417.27;107693;1269;69288;-72
2022/12/22 05:39:54;;;;;;;72.80;44.90;;;;;;;-4.56;98.23;97419.17;107644;1265;58921;-73
2022/12/22 05:42:35;;;;;;;88.60;54.00;;;;;;;-4.56;99.15;97418.84;107662;1269;58904;-73
2022/12/22 05:45:11;;;;;;;86.20;52.80;;;;;;;-4.61;98.70;97419.05;107693;1269;70525;-72
2022/12/22 05:47:44;;;;;;;94.00;52.20;;;;;;;-4.63;98.83;97420.77;107640;1269;69503;-73
2022/12/22 05:50:18;;;;;;;81.50;47.50;;;;;;;-4.65;99.84;97417.40;107625;1269;69303;-73
2022/12/22 05:52:58;;;;;;;93.80;54.90;;;;;;;-4.64;99.99;97422.31;107638;1269;59353;-72
2022/12/22 05:55:27;;;;;;;95.20;51.50;;;;;;;-4.63;100.00;97421.95;107752;1269;59011;-72
2022/12/22 05:58:00;;;;;;;83.70;48.70;;;;;;;-4.63;100.00;97421.11;107681;1269;70465;-71
2022/12/22 06:00:30;;;;;;;74.30;44.70;;;;;;;-4.64;100.00;97423.51;107669;1269;69611;-72
2022/12/22 06:02:59;;;;;;;90.70;52.30;;;;;;;-4.65;100.00;97422.33;107719;1260;69265;-72
2022/12/22 06:05:28;;;;;;;71.10;47.00;;;;;;;-4.66;100.00;97416.73;107750;1270;58846;-71
2022/12/22 06:07:58;;;;;;;66.80;37.20;;;;;;;-4.67;99.95;97416.08;107661;1269;58902;-70
2022/12/22 06:10:27;;;;;;;62.40;39.40;;;;;;;-4.68;98.83;97415.21;107655;1266;70521;-71
2022/12/22 06:12:56;;;;;;;65.40;37.80;;;;;;;-4.67;97.53;97418.78;107705;1269;69834;-72
2022/12/22 06:15:25;;;;;;;67.20;39.80;;;;;;;-4.64;96.68;97418.75;107686;1269;69743;-72
2022/12/22 06:17:55;;;;;;;80.90;48.20;;;;;;;-4.59;95.18;97421.59;107641;1269;58881;-72
2022/12/22 06:20:24;;;;;;;78.10;46.60;;;;;;;-4.56;95.00;97420.02;107656;1266;58912;-72
2022/12/22 06:22:52;;;;;;;71.00;43.90;;;;;;;-4.53;95.40;97421.52;107784;1269;71229;-73
2022/12/22 06:25:21;;;;;;;83.30;50.20;;;;;;;-4.50;95.93;97422.48;107730;1270;69152;-73
2022/12/22 06:27:50;;;;;;;85.80;49.60;;;;;;;-4.49;96.03;97423.15;107871;1265;69692;-71
2022/12/22 06:30:19;;;;;;;85.50;50.00;;;;;;;-4.49;96.26;97424.68;107643;1269;58899;-71
2022/12/22 06:32:47;;;;;;;72.00;44.90;;;;;;;-4.46;97.19;97428.05;107710;1269;58893;-71
2022/12/22 06:35:16;;;;;;;80.50;49.20;;;;;;;-4.42;97.58;97429.70;107654;1269;69969;-72
2022/12/22 06:37:45;;;;;;;71.00;44.40;;;;;;;-4.36;98.09;97433.70;107671;1269;69089;-73
2022/12/22 06:40:14;;;;;;;80.60;50.60;;;;;;;-4.31;98.18;97427.15;107816;1269;70021;-71
2022/12/22 06:45:39;;;;;;;78.40;47.40;;;;;;;-4.18;98.39;97434.14;107722;1269;58926;-73
2022/12/22 06:48:09;;;;;;;75.90;47.30;;;;;;;-4.12;98.52;97433.54;107875;1269;71251;-72
2022/12/22 06:50:38;;;;;;;84.50;49.30;;;;;;;-4.04;98.50;97433.95;107607;1261;68543;-73
2022/12/22 06:53:08;;;;;;;74.10;46.10;;;;;;;-3.97;98.28;97428.89;107723;1269;69905;-71
2022/12/22 06:55:37;;;;;;;81.60;52.50;;;;;;;-3.88;97.96;97426.54;107702;1269;58975;-72
2022/12/22 06:58:06;;;;;;;82.00;51.10;;;;;;;-3.78;97.76;97433.70;107752;1269;58919;-73
2022/12/22 07:00:35;;;;;;;80.10;48.90;;;;;;;-3.69;97.38;97432.02;107756;1269;70055;-72
2022/12/22 07:03:04;;;;;;;82.70;51.30;;;;;;;-3.62;96.95;97429.89;107690;1269;69021;-71
2022/12/22 07:05:33;;;;;;;87.90;55.70;;;;;;;-3.53;96.38;97431.61;107764;1260;68313;-72
2022/12/22 07:08:02;;;;;;;96.30;62.60;;;;;;;-3.42;96.02;97433.46;107670;1269;58937;-71
2022/12/22 07:13:32;;;;;;;93.30;57.60;;;;;;;-3.25;94.44;97436.23;107688;1269;71314;-72
2022/12/22 07:16:03;;;;;;;90.10;59.60;;;;;;;-2.93;94.37;97432.77;107766;1270;68459;-72
2022/12/22 07:18:36;;;;;;;89.90;59.20;;;;;;;-2.59;93.04;97437.54;107795;1269;68662;-71
2022/12/22 07:21:08;;;;;;;74.70;52.00;;;;;;;-2.17;91.35;97437.36;107657;1269;58984;-72
2022/12/22 07:23:38;;;;;;;73.50;48.40;;;;;;;-1.70;89.07;97428.61;107730;1269;58967;-73
2022/12/22 07:26:08;;;;;;;71.60;48.10;;;;;;;-1.24;90.12;97424.21;107747;1267;71105;-72
2022/12/22 07:28:39;;;;;;;90.30;61.20;;;;;;;-0.72;87.98;97422.32;107829;1269;69174;-72
2022/12/22 07:31:10;;;;;;;89.50;63.70;;;;;;;-0.49;83.59;97424.23;107731;1269;69136;-71
2022/12/22 07:33:39;;;;;;;85.50;58.90;;;;;;;-0.35;84.17;97425.23;107743;1269;58973;-72
2022/12/22 07:36:16;;;;;;;89.20;63.40;;;;;;;-0.06;83.45;97428.99;107661;1266;58914;-71
2022/12/22 07:38:48;;;;;;;92.10;65.30;;;;;;;0.04;81.26;97431.59;107760;1266;70600;-71
2022/12/22 07:44:07;;;;;;;108.10;78.80;;;;;;;0.61;84.50;97426.19;107697;1269;68453;-72
2022/12/22 07:46:38;;;;;;;176.30;117.20;;;;;;;0.46;79.51;97425.30;107624;1269;58985;-71
2022/12/22 07:51:57;;;;;;;;;;;;;;;0.22;79.51;97426.58;107682;1269;70565;-73
2022/12/22 07:54:27;;;;;;;169.70;108.50;;;;;;;0.09;80.45;97425.45;107770;1261;69925;-73
2022/12/22 07:56:56;;;;;;;146.10;99.10;;;;;;;-0.01;80.77;97427.64;107666;1269;69154;-72
2022/12/22 07:59:25;;;;;;;162.30;109.30;;;;;;;-0.12;81.77;97432.23;107695;1269;58924;-72
2022/12/22 08:01:54;;;;;;;159.60;113.90;;;;;;;-0.17;82.26;97436.16;107649;1267;58945;-72
2022/12/22 08:04:23;;;;;;;140.30;95.30;;;;;;;-0.27;82.31;97431.83;107651;1270;70035;-72
2022/12/22 08:06:52;;;;;;;126.10;86.70;;;;;;;-0.17;82.56;97433.40;107672;1268;68402;-72
2022/12/22 08:09:21;;;;;;;145.60;101.10;;;;;;;-0.15;82.40;97432.17;107678;1264;69849;-71
2022/12/22 08:11:50;;;;;;;155.10;107.50;;;;;;;-0.19;82.81;97433.66;107655;1269;59313;-72
2022/12/22 08:14:19;;;;;;;150.70;105.50;;;;;;;-0.22;83.39;97429.60;107633;1266;58901;-71
2022/12/22 08:16:47;;;;;;;155.80;106.50;;;;;;;-0.18;83.33;97428.65;107670;1267;70796;-72
2022/12/22 08:19:16;;;;;;;143.60;100.00;;;;;;;-0.06;83.62;97422.81;107672;1269;69194;-72
2022/12/22 08:21:45;;;;;;;140.40;99.80;;;;;;;0.18;83.15;97418.14;107677;1269;69576;-73
2022/12/22 08:24:21;;;;;;;124.40;89.20;;;;;;;0.35;83.01;97411.27;107676;1269;58889;-72
2022/12/22 08:26:54;;;;;;;111.30;76.60;;;;;;;0.54;83.68;97404.30;107770;1266;58960;-73
2022/12/22 08:29:30;;;;;;;111.20;76.70;;;;;;;0.65;83.13;97400.86;107758;1268;70098;-73
2022/12/22 08:32:00;;;;;;;113.40;80.40;;;;;;;0.59;81.91;97404.65;107786;1269;69933;-72
2022/12/22 08:34:29;;;;;;;121.30;83.20;;;;;;;0.59;82.57;97403.79;107626;1269;68293;-72
2022/12/22 08:37:01;;;;;;;163.30;109.00;;;;;;;0.53;83.23;97405.20;107679;1262;58906;-73
2022/12/22 08:39:34;;;;;;;152.10;103.30;;;;;;;0.45;84.38;97397.38;107665;1268;58977;-73
2022/12/22 08:42:05;;;;;;;139.70;96.30;;;;;;;0.45;84.53;97393.27;107662;1269;70409;-73
2022/12/22 08:44:37;;;;;;;112.20;75.30;;;;;;;0.55;83.97;97389.88;107688;1270;70286;-72
2022/12/22 08:47:06;;;;;;;109.40;75.80;;;;;;;0.64;83.24;97385.80;107699;1273;69786;-73
2022/12/22 08:49:43;;;;;;;121.30;83.30;;;;;;;0.70;82.25;97383.34;107692;1264;58963;-74
2022/12/22 08:52:12;;;;;;;133.50;90.90;;;;;;;0.67;81.67;97379.67;107629;1267;58962;-73
2022/12/22 08:54:46;;;;;;;141.00;97.20;;;;;;;0.61;84.15;97379.89;107698;1269;69746;-76
2022/12/22 08:57:15;;;;;;;135.90;95.60;;;;;;;0.63;84.70;97381.73;107873;1269;69952;-73
2022/12/22 08:59:46;;;;;;;133.00;96.20;;;;;;;0.65;83.97;97379.23;107688;1266;69845;-75
2022/12/22 09:02:15;;;;;;;130.50;90.10;;;;;;;0.70;83.58;97378.37;107698;1273;59332;-74
2022/12/22 09:04:44;;;;;;;117.50;82.60;;;;;;;0.71;82.70;97370.30;107676;1268;59305;-75
2022/12/22 09:07:14;;;;;;;122.10;86.00;;;;;;;0.74;82.52;97370.34;107671;1266;71189;-76
2022/12/22 09:09:44;;;;;;;139.50;92.90;;;;;;;0.79;82.37;97369.82;107687;1265;69727;-74
2022/12/22 09:12:13;;;;;;;131.60;92.30;;;;;;;0.85;83.04;97366.54;107724;1260;69277;-74
2022/12/22 09:14:41;;;;;;;136.00;91.70;;;;;;;0.91;82.01;97368.54;107714;1273;59314;-76
2022/12/22 09:17:10;;;;;;;131.90;94.70;;;;;;;1.03;83.49;97362.81;107740;1269;58902;-75
2022/12/22 09:19:39;;;;;;;135.30;92.40;;;;;;;1.17;82.86;97360.95;107647;1269;70665;-74
2022/12/22 09:22:10;;;;;;;147.50;97.50;;;;;;;1.32;82.11;97364.02;107822;1266;70293;-71
2022/12/22 09:24:38;;;;;;;;;;;;;;;1.41;81.70;97365.91;107646;1268;69101;-72
2022/12/22 09:27:08;;;;;;;115.80;82.80;;;;;;;1.44;82.35;97364.06;107698;1272;58901;-73
2022/12/22 09:29:39;;;;;;;119.80;83.50;;;;;;;1.52;82.72;97361.70;107688;1269;58879;-73
2022/12/22 09:32:08;;;;;;;114.00;75.90;;;;;;;1.61;81.57;97357.26;107639;1275;70914;-72
2022/12/22 09:34:37;;;;;;;96.50;70.80;;;;;;;1.80;81.68;97349.84;107820;1266;68503;-72
2022/12/22 09:37:06;;;;;;;83.50;58.80;;;;;;;2.03;81.68;97346.02;107727;1268;68747;-74
2022/12/22 09:39:34;;;;;;;85.80;57.70;;;;;;;2.23;77.75;97342.11;107719;1270;59764;-73
2022/12/22 09:42:03;;;;;;;77.50;55.60;;;;;;;2.46;75.82;97342.36;107667;1269;59802;-72
2022/12/22 09:44:37;;;;;;;78.60;57.30;;;;;;;2.75;78.11;97339.42;107659;1269;70846;-72
2022/12/22 09:47:28;;;;;;;92.70;64.40;;;;;;;2.99;79.84;97333.05;107701;1269;68394;-72
2022/12/22 09:49:58;;;;;;;106.10;70.80;;;;;;;3.11;78.86;97323.43;107665;1268;69905;-73
2022/12/22 09:52:45;;;;;;;96.80;67.90;;;;;;;3.10;75.11;97331.05;107659;1270;59758;-72
2022/12/22 09:55:32;;;;;;;93.70;59.60;;;;;;;3.10;72.04;97338.80;107810;1265;59638;-71
2022/12/22 09:58:02;;;;;;;76.40;48.90;;;;;;;3.18;70.80;97329.83;107749;1267;71300;-72
2022/12/22 10:00:35;;;;;;;54.80;38.20;;;;;;;3.21;68.83;97318.81;107699;1272;67404;-72
2022/12/22 10:03:28;;;;;;;51.10;37.60;;;;;;;3.31;69.06;97317.67;107688;1269;69768;-73
2022/12/22 10:06:06;;;;;;;43.70;32.30;;;;;;;3.46;69.00;97306.13;107660;1260;59748;-72
2022/12/22 10:08:37;;;;;;;49.00;35.60;;;;;;;3.74;70.17;97296.23;107698;1268;59783;-72
2022/12/22 10:11:11;;;;;;;40.60;29.80;;;;;;;3.91;66.90;97291.45;107766;1269;71207;-72
2022/12/22 10:13:40;;;;;;;39.40;30.10;;;;;;;4.06;67.30;97284.87;107714;1270;68236;-72
2022/12/22 10:16:24;;;;;;;39.80;31.20;;;;;;;4.04;64.57;97286.00;107620;1269;68387;-73
2022/12/22 10:19:05;;;;;;;40.80;33.10;;;;;;;3.97;63.73;97281.66;107788;1266;59698;-71
2022/12/22 10:21:48;;;;;;;42.10;31.50;;;;;;;3.92;64.09;97275.04;107848;1271;59670;-73
2022/12/22 10:24:28;;;;;;;43.00;31.50;;;;;;;4.00;65.19;97270.85;107862;1264;72018;-70
2022/12/22 10:26:58;;;;;;;42.50;29.20;;;;;;;4.18;65.31;97264.98;107799;1269;68217;-72
2022/12/22 10:29:31;;;;;;;40.20;29.20;;;;;;;4.42;64.43;97260.84;107725;1269;68411;-73
2022/12/22 10:32:17;;;;;;;39.10;29.80;;;;;;;4.56;62.66;97256.84;107736;1269;59705;-72
2022/12/22 10:35:03;;;;;;;41.10;31.60;;;;;;;4.74;62.46;97256.44;107667;1264;59778;-72
2022/12/22 10:37:38;;;;;;;40.00;30.90;;;;;;;4.92;59.93;97252.88;107692;1270;70509;-70
2022/12/22 10:40:20;;;;;;;40.60;28.40;;;;;;;4.98;59.84;97253.10;107698;1269;69059;-71
2022/12/22 10:42:54;;;;;;;38.70;28.80;;;;;;;5.10;58.72;97256.60;107714;1269;68293;-71
2022/12/22 10:45:26;;;;;;;35.70;25.30;;;;;;;5.25;57.52;97258.40;107700;1265;59713;-69
2022/12/22 10:47:56;;;;;;;31.50;23.40;;;;;;;5.42;57.05;97255.25;107704;1270;59733;-71
2022/12/22 10:50:25;;;;;;;30.10;24.40;;;;;;;5.44;56.50;97249.41;107845;1264;70620;-71
2022/12/22 10:52:57;;;;;;;30.60;23.40;;;;;;;5.51;56.54;97247.48;107745;1269;70175;-69
2022/12/22 10:55:28;;;;;;;31.40;22.70;;;;;;;5.47;56.90;97247.37;107677;1269;69087;-71
2022/12/22 10:58:10;;;;;;;33.30;25.10;;;;;;;5.41;58.20;97243.35;107686;1269;59759;-71
2022/12/22 11:00:40;;;;;;;36.60;27.10;;;;;;;5.09;57.59;97250.60;107718;1268;59715;-71
2022/12/22 11:03:13;;;;;;;34.90;25.90;;;;;;;4.91;59.66;97243.98;107689;1270;70611;-73
2022/12/22 11:05:50;;;;;;;42.10;29.60;;;;;;;4.70;60.10;97242.98;107720;1270;68240;-72
2022/12/22 11:08:20;;;;;;;41.70;30.80;;;;;;;4.53;60.90;97244.92;107679;1269;69461;-70
2022/12/22 11:10:51;;;;;;;37.70;25.10;;;;;;;4.23;59.38;97238.84;107817;1266;59676;-70
2022/12/22 11:13:45;;;;;;;39.30;27.20;;;;;;;4.21;60.50;97225.65;107874;1264;59689;-71
2022/12/22 11:16:13;;;;;;;38.40;27.00;;;;;;;4.22;60.88;97224.41;107804;1269;70529;-71
2022/12/22 11:19:02;;;;;;;35.00;25.30;;;;;;;4.17;59.68;97225.87;107769;1265;69070;-72
2022/12/22 11:21:40;;;;;;;37.80;27.60;;;;;;;4.21;59.93;97225.33;107672;1263;69119;-71
2022/12/22 11:24:20;;;;;;;38.80;27.70;;;;;;;4.18;58.89;97228.39;107695;1269;59706;-73
2022/12/22 11:27:17;;;;;;;33.90;25.00;;;;;;;4.19;58.69;97224.73;107748;1269;59794;-72
2022/12/22 11:30:09;;;;;;;36.70;26.30;;;;;;;4.24;59.55;97222.40;107685;1270;70881;-72
2022/12/22 11:33:14;;;;;;;31.50;23.40;;;;;;;4.33;61.47;97213.49;107563;1270;69751;-72
2022/12/22 11:36:00;;;;;;;32.30;23.90;;;;;;;4.38;60.58;97209.30;107569;1270;68492;-72
2022/12/22 11:38:55;;;;;;;33.30;23.90;;;;;;;4.38;58.89;97206.52;107592;1269;59705;-72
2022/12/22 11:41:48;;;;;;;29.10;22.80;;;;;;;4.44;59.78;97203.77;107602;1271;59700;-72
2022/12/22 11:44:44;;;;;;;40.90;28.00;;;;;;;4.49;59.42;97201.61;107635;1269;72053;-74
2022/12/22 11:47:34;;;;;;;37.90;27.10;;;;;;;4.49;58.82;97194.89;107635;1270;69079;-73
2022/12/22 11:50:32;;;;;;;38.10;30.50;;;;;;;4.53;60.23;97193.66;107615;1271;68577;-74
2022/12/22 11:53:51;;;;;;;39.70;28.20;;;;;;;4.51;60.72;97193.58;107580;1270;59749;-73
2022/12/22 11:56:37;;;;;;;36.90;25.80;;;;;;;4.49;60.76;97188.88;107629;1270;59761;-74
2022/12/22 11:59:37;;;;;;;34.30;26.30;;;;;;;4.48;60.59;97185.95;107521;1270;72009;-72
2022/12/22 12:02:38;;;;;;;25.90;19.70;;;;;;;4.52;60.74;97181.25;107429;1269;68265;-72
2022/12/22 12:05:30;;;;;;;32.70;24.30;;;;;;;4.58;60.46;97178.02;107541;1266;69286;-72
2022/12/22 12:08:16;;;;;;;28.40;21.60;;;;;;;4.61;60.10;97183.23;107564;1266;59778;-72
2022/12/22 12:11:10;;;;;;;29.70;19.90;;;;;;;4.65;59.86;97184.91;107574;1267;59693;-72
2022/12/22 12:13:53;;;;;;;35.10;24.70;;;;;;;4.71;58.89;97181.82;107599;1270;71472;-72
2022/12/22 12:16:50;;;;;;;33.30;24.80;;;;;;;4.82;59.10;97173.67;107645;1270;69167;-72
2022/12/22 12:19:43;;;;;;;33.40;25.30;;;;;;;4.95;57.45;97171.38;107574;1271;69294;-72
2022/12/22 12:22:31;;;;;;;35.60;26.30;;;;;;;5.14;58.02;97171.20;107585;1270;59797;-73
2022/12/22 12:25:10;;;;;;;39.10;29.50;;;;;;;5.39;59.38;97169.31;107615;1270;59702;-74
2022/12/22 12:27:56;;;;;;;42.90;30.80;;;;;;;5.66;57.78;97166.42;107623;1269;71389;-74
2022/12/22 12:30:30;;;;;;;42.80;31.30;;;;;;;6.02;56.78;97168.88;107603;1271;69142;-73
2022/12/22 12:33:35;;;;;;;41.70;30.70;;;;;;;6.77;56.46;97166.80;107628;1270;68724;-73
2022/12/22 12:36:51;;;;;;;50.00;35.50;;;;;;;8.03;53.28;97164.63;107432;1269;59773;-74
2022/12/22 12:39:24;;;;;;;45.60;34.00;;;;;;;8.53;51.30;97165.15;107557;1270;59706;-73
2022/12/22 12:42:12;;;;;;;48.00;36.10;;;;;;;8.45;50.28;97162.92;107615;1270;71434;-73
2022/12/22 12:44:41;;;;;;;35.20;25.80;;;;;;;8.32;49.97;97155.98;107593;1270;69138;-73
2022/12/22 12:47:26;;;;;;;32.20;22.60;;;;;;;8.17;51.05;97155.00;107572;1270;70148;-73
2022/12/22 12:49:56;;;;;;;35.00;25.80;;;;;;;7.83;49.39;97158.55;107610;1271;59737;-73
2022/12/22 12:52:37;;;;;;;;;;;;;;;7.52;50.25;97154.64;107514;1270;59754;-74
2022/12/22 12:55:32;;;;;;;29.60;22.20;;;;;;;7.30;51.75;97148.59;107577;1269;70504;-73
2022/12/22 12:58:03;;;;;;;35.20;26.50;;;;;;;7.04;53.21;97142.77;107564;1270;69276;-73
2022/12/22 13:00:32;;;;;;;37.10;26.10;;;;;;;6.69;52.36;97140.63;107539;1270;69363;-73
2022/12/22 13:03:10;;;;;;;42.10;31.60;;;;;;;6.44;53.19;97144.21;107598;1270;59733;-73
2022/12/22 13:06:05;;;;;;;33.50;23.70;;;;;;;6.30;54.13;97145.59;107341;1270;59693;-72
2022/12/22 13:08:46;;;;;;;41.40;29.80;;;;;;;6.13;53.83;97147.49;107432;1270;72015;-73
2022/12/22 13:11:19;;;;;;;43.20;29.70;;;;;;;6.00;54.54;97151.04;107578;1270;69797;-73
2022/12/22 13:14:08;;;;;;;46.10;31.60;;;;;;;5.97;54.77;97156.88;107575;1270;68001;-73
2022/12/22 13:16:38;;;;;;;41.30;30.70;;;;;;;5.96;55.30;97158.16;107425;1270;59743;-74
2022/12/22 13:19:18;;;;;;;39.80;29.00;;;;;;;5.85;55.24;97159.96;107700;1269;59707;-74
2022/12/22 13:21:47;;;;;;;;;;;;;;;5.67;54.99;97158.98;107783;1271;71497;-74
2022/12/22 13:24:28;;;;;;;35.60;23.70;;;;;;;5.53;55.31;97152.95;107781;1270;69683;-74
2022/12/22 13:27:05;;;;;;;35.20;24.70;;;;;;;5.47;55.73;97154.39;107469;1270;70001;-74
2022/12/22 13:29:44;;;;;;;29.60;23.00;;;;;;;5.38;55.84;97149.70;107574;1270;59917;-74
2022/12/22 13:32:26;;;;;;;33.20;23.80;;;;;;;5.32;56.08;97153.48;107556;1270;59756;-72
2022/12/22 13:35:05;;;;;;;28.30;21.50;;;;;;;5.28;56.49;97160.80;107569;1270;71481;-74
2022/12/22 13:37:56;;;;;;;31.70;23.40;;;;;;;5.38;56.91;97154.72;107535;1266;68615;-74
2022/12/22 13:40:29;;;;;;;26.80;20.60;;;;;;;5.37;56.13;97153.54;107530;1266;69287;-74
2022/12/22 13:43:11;;;;;;;26.30;19.80;;;;;;;5.32;56.09;97156.04;107567;1270;59763;-73
2022/12/22 13:45:46;;;;;;;32.00;21.70;;;;;;;5.26;55.17;97158.14;107603;1269;59725;-73
2022/12/22 13:48:29;;;;;;;28.50;21.50;;;;;;;5.19;55.81;97158.71;107568;1270;72032;-73
2022/12/22 13:51:01;;;;;;;32.60;22.90;;;;;;;5.12;55.82;97162.54;107436;1271;69177;-73
2022/12/22 13:53:41;;;;;;;27.90;19.70;;;;;;;5.08;57.52;97158.74;107435;1270;69277;-73
2022/12/22 13:56:37;;;;;;;41.20;26.80;;;;;;;4.98;59.28;97156.36;107369;1272;59786;-73
2022/12/22 13:59:16;;;;;;;36.50;26.00;;;;;;;4.74;61.45;97159.39;107558;1270;59747;-72
2022/12/22 14:01:59;;;;;;;34.40;23.80;;;;;;;4.60;61.32;97166.54;107581;1269;72569;-73
2022/12/22 14:04:29;;;;;;;33.60;24.00;;;;;;;4.48;62.03;97165.46;107606;1269;68621;-73
2022/12/22 14:07:08;;;;;;;;;;;;;;;4.42;61.73;97167.33;107511;1271;69305;-73
2022/12/22 14:09:48;;;;;;;41.50;29.20;;;;;;;4.33;61.42;97174.85;107498;1271;59805;-73
2022/12/22 14:12:21;;;;;;;43.60;30.50;;;;;;;4.21;62.18;97172.71;107628;1270;59632;-73
2022/12/22 14:14:52;;;;;;;40.00;29.80;;;;;;;4.13;63.26;97172.98;107062;1272;550684;-72
2022/12/22 14:17:26;;;;;;;40.30;29.10;;;;;;;4.14;63.44;97173.04;107595;1266;70306;-73
2022/12/22 14:19:58;;;;;;;36.80;26.20;;;;;;;4.26;63.35;97177.78;107593;1270;70374;-74
2022/12/22 14:22:30;;;;;;;38.40;28.80;;;;;;;4.50;61.73;97182.91;107477;1270;59733;-73
2022/12/22 14:25:11;;;;;;;38.20;27.60;;;;;;;4.59;61.98;97180.86;107588;1270;59769;-73
2022/12/22 14:27:49;;;;;;;45.60;28.80;;;;;;;4.57;62.23;97177.19;107497;1271;71029;-74
2022/12/22 14:30:22;;;;;;;46.40;31.80;;;;;;;4.51;62.37;97166.14;107588;1270;69170;-73
2022/12/22 14:32:56;;;;;;;39.80;29.00;;;;;;;4.44;62.43;97171.14;107594;1270;69286;-73
2022/12/22 14:35:29;;;;;;;42.90;30.30;;;;;;;4.33;62.78;97174.84;107360;1273;59917;-73
2022/12/22 14:38:01;;;;;;;54.80;37.30;;;;;;;4.19;63.47;97176.79;107397;1270;59740;-73
2022/12/22 14:40:34;;;;;;;50.40;36.60;;;;;;;4.04;64.11;97176.83;107596;1270;70646;-73
2022/12/22 14:43:13;;;;;;;48.60;34.90;;;;;;;3.87;64.12;97175.25;107592;1269;69728;-73
2022/12/22 14:45:44;;;;;;;51.80;37.30;;;;;;;3.77;64.23;97173.69;107563;1266;69359;-73
2022/12/22 14:48:26;;;;;;;47.80;34.50;;;;;;;3.69;64.19;97171.49;107596;1269;59718;-73
2022/12/22 14:50:55;;;;;;;47.50;31.90;;;;;;;3.60;64.94;97171.24;107438;1270;60202;-73
2022/12/22 14:53:31;;;;;;;44.30;31.30;;;;;;;3.51;65.43;97172.73;107607;1270;71384;-73
2022/12/22 14:56:00;;;;;;;41.90;30.50;;;;;;;3.41;66.10;97167.15;107638;1266;69006;-73
2022/12/22 14:58:34;;;;;;;43.30;30.10;;;;;;;3.31;66.19;97170.23;107565;1270;69293;-73
2022/12/22 15:01:21;;;;;;;39.70;29.10;;;;;;;3.22;66.23;97181.36;107625;1269;59776;-73
2022/12/22 15:04:07;;;;;;;52.20;36.10;;;;;;;3.16;66.30;97185.78;107614;1270;59748;-74
2022/12/22 15:06:39;;;;;;;40.60;28.40;;;;;;;3.10;65.82;97188.82;107492;1268;72121;-73
2022/12/22 15:09:24;;;;;;;47.50;35.30;;;;;;;3.00;66.64;97185.44;107553;1270;69058;-73
2022/12/22 15:12:20;;;;;;;34.10;24.10;;;;;;;2.85;67.95;97184.09;107543;1270;69908;-73
2022/12/22 15:14:48;;;;;;;47.80;31.40;;;;;;;2.76;68.08;97181.39;107608;1270;60089;-73
2022/12/22 15:17:24;;;;;;;38.20;27.00;;;;;;;2.69;69.12;97180.86;107656;1266;59713;-73
2022/12/22 15:19:58;;;;;;;37.80;26.60;;;;;;;2.56;70.91;97181.10;107519;1272;71940;-73
2022/12/22 15:22:26;;;;;;;41.70;29.70;;;;;;;2.48;70.69;97183.87;107589;1269;69127;-73
2022/12/22 15:24:55;;;;;;;43.20;33.10;;;;;;;2.37;70.13;97188.13;107581;1267;68930;-73
2022/12/22 15:27:24;;;;;;;44.50;30.80;;;;;;;2.21;69.09;97185.88;107564;1271;59789;-72
2022/12/22 15:29:53;;;;;;;36.40;27.30;;;;;;;2.05;68.91;97190.02;107552;1266;59650;-73
2022/12/22 15:32:22;;;;;;;34.30;25.40;;;;;;;1.91;68.65;97196.24;107608;1267;71371;-72
2022/12/22 15:34:51;;;;;;;31.30;22.50;;;;;;;1.84;69.25;97195.73;107472;1270;69675;-74